sensor_id;sensor_type;location;lat;lon;timestamp;temperature;humidity
19214;DHT22;9741;51.020;5.304;2023-08-06T00:01:06;16.70;68.30
19214;DHT22;9741;51.020;5.304;2023-08-06T00:03:45;16.70;68.40
19214;DHT22;9741;51.020;5.304;2023-08-06T00:06:18;16.60;68.40
19214;DHT22;9741;51.020;5.304;2023-08-06T00:08:48;16.60;68.40
19214;DHT22;9741;51.020;5.304;2023-08-06T00:11:23;16.60;68.60
19214;DHT22;9741;51.020;5.304;2023-08-06T00:13:55;16.60;68.70
19214;DHT22;9741;51.020;5.304;2023-08-06T00:16:36;16.60;68.80
19214;DHT22;9741;51.020;5.304;2023-08-06T00:19:09;16.70;68.90
19214;DHT22;9741;51.020;5.304;2023-08-06T00:21:42;16.70;68.80
19214;DHT22;9741;51.020;5.304;2023-08-06T00:24:10;16.70;68.90
19214;DHT22;9741;51.020;5.304;2023-08-06T00:26:59;16.80;68.90
19214;DHT22;9741;51.020;5.304;2023-08-06T00:29:33;16.80;68.90
19214;DHT22;9741;51.020;5.304;2023-08-06T00:32:09;16.80;68.90
19214;DHT22;9741;51.020;5.304;2023-08-06T00:34:46;16.80;68.90
19214;DHT22;9741;51.020;5.304;2023-08-06T00:37:23;16.90;69.00
19214;DHT22;9741;51.020;5.304;2023-08-06T00:39:59;16.90;69.50
19214;DHT22;9741;51.020;5.304;2023-08-06T00:42:28;16.90;69.00
19214;DHT22;9741;51.020;5.304;2023-08-06T00:45:06;17.00;69.10
19214;DHT22;9741;51.020;5.304;2023-08-06T00:47:40;17.00;69.10
19214;DHT22;9741;51.020;5.304;2023-08-06T00:50:15;17.00;69.10
19214;DHT22;9741;51.020;5.304;2023-08-06T00:52:44;17.00;69.10
19214;DHT22;9741;51.020;5.304;2023-08-06T00:55:17;17.00;69.10
19214;DHT22;9741;51.020;5.304;2023-08-06T00:57:55;17.00;69.10
19214;DHT22;9741;51.020;5.304;2023-08-06T01:00:29;16.90;69.10
19214;DHT22;9741;51.020;5.304;2023-08-06T01:02:59;17.00;69.20
19214;DHT22;9741;51.020;5.304;2023-08-06T01:05:30;16.90;69.10
19214;DHT22;9741;51.020;5.304;2023-08-06T01:08:12;16.90;69.10
19214;DHT22;9741;51.020;5.304;2023-08-06T01:11:02;16.90;69.20
19214;DHT22;9741;51.020;5.304;2023-08-06T01:13:42;16.90;69.20
19214;DHT22;9741;51.020;5.304;2023-08-06T01:16:17;16.90;69.20
19214;DHT22;9741;51.020;5.304;2023-08-06T01:18:49;16.90;69.30
19214;DHT22;9741;51.020;5.304;2023-08-06T01:21:52;16.80;69.20
19214;DHT22;9741;51.020;5.304;2023-08-06T01:24:23;16.80;69.30
19214;DHT22;9741;51.020;5.304;2023-08-06T01:27:06;16.80;69.40
19214;DHT22;9741;51.020;5.304;2023-08-06T01:29:43;16.80;69.40
19214;DHT22;9741;51.020;5.304;2023-08-06T01:32:14;16.80;69.50
19214;DHT22;9741;51.020;5.304;2023-08-06T01:34:47;16.80;69.60
19214;DHT22;9741;51.020;5.304;2023-08-06T01:37:22;16.80;69.60
19214;DHT22;9741;51.020;5.304;2023-08-06T01:39:55;16.80;69.70
19214;DHT22;9741;51.020;5.304;2023-08-06T01:42:26;16.80;69.70
19214;DHT22;9741;51.020;5.304;2023-08-06T01:44:56;16.90;69.80
19214;DHT22;9741;51.020;5.304;2023-08-06T01:47:24;16.90;69.80
19214;DHT22;9741;51.020;5.304;2023-08-06T01:49:54;16.90;69.80
19214;DHT22;9741;51.020;5.304;2023-08-06T01:52:27;16.90;69.80
19214;DHT22;9741;51.020;5.304;2023-08-06T01:55:00;16.90;69.80
19214;DHT22;9741;51.020;5.304;2023-08-06T01:57:31;16.90;69.80
19214;DHT22;9741;51.020;5.304;2023-08-06T02:00:16;16.90;69.80
19214;DHT22;9741;51.020;5.304;2023-08-06T02:02:51;16.90;69.80
19214;DHT22;9741;51.020;5.304;2023-08-06T02:05:22;17.00;69.90
19214;DHT22;9741;51.020;5.304;2023-08-06T02:07:57;17.00;69.90
19214;DHT22;9741;51.020;5.304;2023-08-06T02:10:28;16.90;69.80
19214;DHT22;9741;51.020;5.304;2023-08-06T02:13:01;16.90;69.90
19214;DHT22;9741;51.020;5.304;2023-08-06T02:15:35;16.90;70.00
19214;DHT22;9741;51.020;5.304;2023-08-06T02:18:09;17.00;70.10
19214;DHT22;9741;51.020;5.304;2023-08-06T02:20:54;16.90;70.00
19214;DHT22;9741;51.020;5.304;2023-08-06T02:23:28;17.00;70.10
19214;DHT22;9741;51.020;5.304;2023-08-06T02:26:02;17.00;70.10
19214;DHT22;9741;51.020;5.304;2023-08-06T02:28:34;17.00;70.10
19214;DHT22;9741;51.020;5.304;2023-08-06T02:31:04;17.00;70.10
19214;DHT22;9741;51.020;5.304;2023-08-06T02:33:41;16.90;70.00
19214;DHT22;9741;51.020;5.304;2023-08-06T02:36:22;16.90;70.60
19214;DHT22;9741;51.020;5.304;2023-08-06T02:39:03;17.00;70.30
19214;DHT22;9741;51.020;5.304;2023-08-06T02:41:37;17.00;70.30
19214;DHT22;9741;51.020;5.304;2023-08-06T02:44:14;17.00;70.30
19214;DHT22;9741;51.020;5.304;2023-08-06T02:46:57;17.00;70.30
19214;DHT22;9741;51.020;5.304;2023-08-06T02:49:37;17.00;70.30
19214;DHT22;9741;51.020;5.304;2023-08-06T02:52:08;17.00;70.40
19214;DHT22;9741;51.020;5.304;2023-08-06T02:54:43;17.00;70.40
19214;DHT22;9741;51.020;5.304;2023-08-06T02:57:15;17.10;70.50
19214;DHT22;9741;51.020;5.304;2023-08-06T02:59:53;17.10;70.60
19214;DHT22;9741;51.020;5.304;2023-08-06T03:02:30;17.10;70.40
19214;DHT22;9741;51.020;5.304;2023-08-06T03:05:09;17.10;70.40
19214;DHT22;9741;51.020;5.304;2023-08-06T03:07:49;17.10;70.40
19214;DHT22;9741;51.020;5.304;2023-08-06T03:10:43;17.10;70.40
19214;DHT22;9741;51.020;5.304;2023-08-06T03:13:15;17.20;70.40
19214;DHT22;9741;51.020;5.304;2023-08-06T03:15:57;17.10;70.30
19214;DHT22;9741;51.020;5.304;2023-08-06T03:18:36;17.10;70.40
19214;DHT22;9741;51.020;5.304;2023-08-06T03:21:06;17.10;70.40
19214;DHT22;9741;51.020;5.304;2023-08-06T03:23:35;17.20;70.50
19214;DHT22;9741;51.020;5.304;2023-08-06T03:26:15;17.20;70.50
19214;DHT22;9741;51.020;5.304;2023-08-06T03:28:48;17.20;70.70
19214;DHT22;9741;51.020;5.304;2023-08-06T03:31:16;17.20;70.50
19214;DHT22;9741;51.020;5.304;2023-08-06T03:33:58;17.20;70.50
19214;DHT22;9741;51.020;5.304;2023-08-06T03:36:27;17.20;70.40
19214;DHT22;9741;51.020;5.304;2023-08-06T03:39:00;17.30;70.50
19214;DHT22;9741;51.020;5.304;2023-08-06T03:41:37;17.30;70.50
19214;DHT22;9741;51.020;5.304;2023-08-06T03:44:06;17.30;70.50
19214;DHT22;9741;51.020;5.304;2023-08-06T03:46:37;17.30;70.50
19214;DHT22;9741;51.020;5.304;2023-08-06T03:49:06;17.30;70.50
19214;DHT22;9741;51.020;5.304;2023-08-06T03:51:34;17.30;70.50
19214;DHT22;9741;51.020;5.304;2023-08-06T03:54:04;17.30;70.50
19214;DHT22;9741;51.020;5.304;2023-08-06T03:56:39;17.30;70.50
19214;DHT22;9741;51.020;5.304;2023-08-06T03:59:13;17.30;70.50
19214;DHT22;9741;51.020;5.304;2023-08-06T04:01:42;17.40;70.60
19214;DHT22;9741;51.020;5.304;2023-08-06T04:04:22;17.40;70.60
19214;DHT22;9741;51.020;5.304;2023-08-06T04:06:56;17.40;70.60
19214;DHT22;9741;51.020;5.304;2023-08-06T04:09:31;17.40;70.60
19214;DHT22;9741;51.020;5.304;2023-08-06T04:12:16;17.40;70.50
19214;DHT22;9741;51.020;5.304;2023-08-06T04:14:46;17.40;70.50
19214;DHT22;9741;51.020;5.304;2023-08-06T04:17:27;17.40;70.50
19214;DHT22;9741;51.020;5.304;2023-08-06T04:19:57;17.50;70.60
19214;DHT22;9741;51.020;5.304;2023-08-06T04:22:29;17.50;70.60
19214;DHT22;9741;51.020;5.304;2023-08-06T04:25:00;17.50;70.60
19214;DHT22;9741;51.020;5.304;2023-08-06T04:27:39;17.50;70.60
19214;DHT22;9741;51.020;5.304;2023-08-06T04:30:10;17.50;70.60
19214;DHT22;9741;51.020;5.304;2023-08-06T04:32:39;17.50;70.60
19214;DHT22;9741;51.020;5.304;2023-08-06T04:35:12;17.50;70.60
19214;DHT22;9741;51.020;5.304;2023-08-06T04:37:49;17.50;70.50
19214;DHT22;9741;51.020;5.304;2023-08-06T04:40:33;17.50;70.50
19214;DHT22;9741;51.020;5.304;2023-08-06T04:43:06;17.50;70.50
19214;DHT22;9741;51.020;5.304;2023-08-06T04:45:37;17.40;70.50
19214;DHT22;9741;51.020;5.304;2023-08-06T04:48:15;17.50;70.60
19214;DHT22;9741;51.020;5.304;2023-08-06T04:50:45;17.50;70.60
19214;DHT22;9741;51.020;5.304;2023-08-06T04:53:21;17.50;70.70
19214;DHT22;9741;51.020;5.304;2023-08-06T04:55:55;17.50;70.70
19214;DHT22;9741;51.020;5.304;2023-08-06T04:58:32;17.50;70.70
19214;DHT22;9741;51.020;5.304;2023-08-06T05:01:00;17.60;70.70
19214;DHT22;9741;51.020;5.304;2023-08-06T05:03:33;17.60;70.70
19214;DHT22;9741;51.020;5.304;2023-08-06T05:06:10;17.60;70.70
19214;DHT22;9741;51.020;5.304;2023-08-06T05:08:43;17.70;70.80
19214;DHT22;9741;51.020;5.304;2023-08-06T05:11:10;17.70;70.70
19214;DHT22;9741;51.020;5.304;2023-08-06T05:13:42;17.70;70.70
19214;DHT22;9741;51.020;5.304;2023-08-06T05:16:19;17.70;70.70
19214;DHT22;9741;51.020;5.304;2023-08-06T05:19:01;17.80;70.70
19214;DHT22;9741;51.020;5.304;2023-08-06T05:21:31;17.80;70.70
19214;DHT22;9741;51.020;5.304;2023-08-06T05:24:00;17.80;70.70
19214;DHT22;9741;51.020;5.304;2023-08-06T05:26:37;17.70;70.60
19214;DHT22;9741;51.020;5.304;2023-08-06T05:29:18;17.70;70.60
19214;DHT22;9741;51.020;5.304;2023-08-06T05:31:48;17.70;70.60
19214;DHT22;9741;51.020;5.304;2023-08-06T05:34:18;17.60;70.60
19214;DHT22;9741;51.020;5.304;2023-08-06T05:36:49;17.60;70.70
19214;DHT22;9741;51.020;5.304;2023-08-06T05:39:21;17.60;70.70
19214;DHT22;9741;51.020;5.304;2023-08-06T05:41:49;17.50;70.50
19214;DHT22;9741;51.020;5.304;2023-08-06T05:44:25;17.50;70.60
19214;DHT22;9741;51.020;5.304;2023-08-06T05:46:55;17.50;70.70
19214;DHT22;9741;51.020;5.304;2023-08-06T05:49:23;17.50;70.70
19214;DHT22;9741;51.020;5.304;2023-08-06T05:51:54;17.50;70.80
19214;DHT22;9741;51.020;5.304;2023-08-06T05:54:23;17.50;70.70
19214;DHT22;9741;51.020;5.304;2023-08-06T05:57:06;17.50;70.80
19214;DHT22;9741;51.020;5.304;2023-08-06T05:59:48;17.50;70.80
19214;DHT22;9741;51.020;5.304;2023-08-06T06:02:27;17.40;70.70
19214;DHT22;9741;51.020;5.304;2023-08-06T06:05:04;17.30;70.70
19214;DHT22;9741;51.020;5.304;2023-08-06T06:07:43;17.30;70.80
19214;DHT22;9741;51.020;5.304;2023-08-06T06:10:15;17.30;70.90
19214;DHT22;9741;51.020;5.304;2023-08-06T06:12:44;17.20;70.80
19214;DHT22;9741;51.020;5.304;2023-08-06T06:15:21;17.10;70.80
19214;DHT22;9741;51.020;5.304;2023-08-06T06:17:56;17.10;70.90
19214;DHT22;9741;51.020;5.304;2023-08-06T06:20:27;17.00;70.90
19214;DHT22;9741;51.020;5.304;2023-08-06T06:23:02;16.90;70.90
19214;DHT22;9741;51.020;5.304;2023-08-06T06:25:32;16.80;70.90
19214;DHT22;9741;51.020;5.304;2023-08-06T06:28:14;16.70;70.90
19214;DHT22;9741;51.020;5.304;2023-08-06T06:31:05;16.70;71.00
19214;DHT22;9741;51.020;5.304;2023-08-06T06:33:36;16.60;70.90
19214;DHT22;9741;51.020;5.304;2023-08-06T06:36:18;16.50;70.90
19214;DHT22;9741;51.020;5.304;2023-08-06T06:38:52;16.50;70.90
19214;DHT22;9741;51.020;5.304;2023-08-06T06:41:24;16.50;70.80
19214;DHT22;9741;51.020;5.304;2023-08-06T06:44:06;16.40;70.80
19214;DHT22;9741;51.020;5.304;2023-08-06T06:46:50;16.40;70.80
19214;DHT22;9741;51.020;5.304;2023-08-06T06:49:18;16.30;70.80
19214;DHT22;9741;51.020;5.304;2023-08-06T06:51:58;16.30;70.90
19214;DHT22;9741;51.020;5.304;2023-08-06T06:54:30;16.30;71.00
19214;DHT22;9741;51.020;5.304;2023-08-06T06:57:07;16.30;71.00
19214;DHT22;9741;51.020;5.304;2023-08-06T06:59:37;16.30;71.00
19214;DHT22;9741;51.020;5.304;2023-08-06T07:02:10;16.30;71.00
19214;DHT22;9741;51.020;5.304;2023-08-06T07:04:49;16.30;70.90
19214;DHT22;9741;51.020;5.304;2023-08-06T07:07:19;16.30;71.00
19214;DHT22;9741;51.020;5.304;2023-08-06T07:09:49;16.40;71.10
19214;DHT22;9741;51.020;5.304;2023-08-06T07:12:17;16.40;71.10
19214;DHT22;9741;51.020;5.304;2023-08-06T07:14:54;16.50;71.10
19214;DHT22;9741;51.020;5.304;2023-08-06T07:17:25;16.60;71.20
19214;DHT22;9741;51.020;5.304;2023-08-06T07:19:54;16.70;71.20
19214;DHT22;9741;51.020;5.304;2023-08-06T07:22:30;16.70;70.90
19214;DHT22;9741;51.020;5.304;2023-08-06T07:25:10;16.70;70.80
19214;DHT22;9741;51.020;5.304;2023-08-06T07:27:38;16.70;70.80
19214;DHT22;9741;51.020;5.304;2023-08-06T07:30:11;16.60;70.70
19214;DHT22;9741;51.020;5.304;2023-08-06T07:32:44;16.60;70.90
19214;DHT22;9741;51.020;5.304;2023-08-06T07:35:17;16.60;71.00
19214;DHT22;9741;51.020;5.304;2023-08-06T07:37:49;16.60;71.10
19214;DHT22;9741;51.020;5.304;2023-08-06T07:40:21;16.60;71.00
19214;DHT22;9741;51.020;5.304;2023-08-06T07:42:55;16.70;71.10
19214;DHT22;9741;51.020;5.304;2023-08-06T07:45:37;16.70;71.10
19214;DHT22;9741;51.020;5.304;2023-08-06T07:48:11;16.80;71.10
19214;DHT22;9741;51.020;5.304;2023-08-06T07:50:41;16.80;71.00
19214;DHT22;9741;51.020;5.304;2023-08-06T07:53:19;16.90;70.90
19214;DHT22;9741;51.020;5.304;2023-08-06T07:55:57;16.90;70.80
19214;DHT22;9741;51.020;5.304;2023-08-06T07:58:29;16.90;70.80
19214;DHT22;9741;51.020;5.304;2023-08-06T08:01:02;16.90;70.70
19214;DHT22;9741;51.020;5.304;2023-08-06T08:03:34;16.90;70.60
19214;DHT22;9741;51.020;5.304;2023-08-06T08:06:08;16.90;70.50
19214;DHT22;9741;51.020;5.304;2023-08-06T08:08:37;16.90;70.50
19214;DHT22;9741;51.020;5.304;2023-08-06T08:11:08;16.90;70.50
19214;DHT22;9741;51.020;5.304;2023-08-06T08:13:40;16.90;70.40
19214;DHT22;9741;51.020;5.304;2023-08-06T08:16:13;16.90;70.40
19214;DHT22;9741;51.020;5.304;2023-08-06T08:18:51;17.00;70.50
19214;DHT22;9741;51.020;5.304;2023-08-06T08:21:22;17.00;70.50
19214;DHT22;9741;51.020;5.304;2023-08-06T08:23:53;17.00;70.40
19214;DHT22;9741;51.020;5.304;2023-08-06T08:26:22;17.10;70.30
19214;DHT22;9741;51.020;5.304;2023-08-06T08:28:59;17.10;70.30
19214;DHT22;9741;51.020;5.304;2023-08-06T08:31:35;17.10;70.30
19214;DHT22;9741;51.020;5.304;2023-08-06T08:34:10;17.20;70.20
19214;DHT22;9741;51.020;5.304;2023-08-06T08:36:39;17.20;70.10
19214;DHT22;9741;51.020;5.304;2023-08-06T08:39:13;17.30;70.20
19214;DHT22;9741;51.020;5.304;2023-08-06T08:41:44;17.30;70.20
19214;DHT22;9741;51.020;5.304;2023-08-06T08:44:17;17.40;70.10
19214;DHT22;9741;51.020;5.304;2023-08-06T08:46:48;17.50;70.00
19214;DHT22;9741;51.020;5.304;2023-08-06T08:49:34;17.40;69.80
19214;DHT22;9741;51.020;5.304;2023-08-06T08:52:06;17.50;69.90
19214;DHT22;9741;51.020;5.304;2023-08-06T08:54:48;17.40;69.80
19214;DHT22;9741;51.020;5.304;2023-08-06T08:57:18;17.50;70.00
19214;DHT22;9741;51.020;5.304;2023-08-06T08:59:47;17.50;69.90
19214;DHT22;9741;51.020;5.304;2023-08-06T09:02:23;17.50;69.80
19214;DHT22;9741;51.020;5.304;2023-08-06T09:05:20;17.50;69.80
19214;DHT22;9741;51.020;5.304;2023-08-06T09:07:53;17.60;70.00
19214;DHT22;9741;51.020;5.304;2023-08-06T09:10:27;17.70;70.00
19214;DHT22;9741;51.020;5.304;2023-08-06T09:13:00;17.70;69.90
19214;DHT22;9741;51.020;5.304;2023-08-06T09:15:31;17.70;70.30
19214;DHT22;9741;51.020;5.304;2023-08-06T09:18:10;17.80;69.80
19214;DHT22;9741;51.020;5.304;2023-08-06T09:20:49;17.90;69.80
19214;DHT22;9741;51.020;5.304;2023-08-06T09:23:21;18.00;69.80
19214;DHT22;9741;51.020;5.304;2023-08-06T09:25:59;18.00;69.70
19214;DHT22;9741;51.020;5.304;2023-08-06T09:28:37;18.10;69.70
19214;DHT22;9741;51.020;5.304;2023-08-06T09:31:10;18.20;69.50
19214;DHT22;9741;51.020;5.304;2023-08-06T09:33:40;18.20;69.30
19214;DHT22;9741;51.020;5.304;2023-08-06T09:36:16;18.20;69.10
19214;DHT22;9741;51.020;5.304;2023-08-06T09:38:49;18.20;69.10
19214;DHT22;9741;51.020;5.304;2023-08-06T09:41:26;18.20;69.10
19214;DHT22;9741;51.020;5.304;2023-08-06T09:43:58;18.20;69.20
19214;DHT22;9741;51.020;5.304;2023-08-06T09:46:31;18.20;69.10
19214;DHT22;9741;51.020;5.304;2023-08-06T09:49:04;18.30;69.20
19214;DHT22;9741;51.020;5.304;2023-08-06T09:51:48;18.40;69.20
19214;DHT22;9741;51.020;5.304;2023-08-06T09:54:25;18.40;69.00
19214;DHT22;9741;51.020;5.304;2023-08-06T09:56:59;18.50;69.00
19214;DHT22;9741;51.020;5.304;2023-08-06T09:59:31;18.40;68.70
19214;DHT22;9741;51.020;5.304;2023-08-06T10:02:05;18.40;68.70
19214;DHT22;9741;51.020;5.304;2023-08-06T10:04:45;18.30;68.60
19214;DHT22;9741;51.020;5.304;2023-08-06T10:07:21;18.30;68.70
19214;DHT22;9741;51.020;5.304;2023-08-06T10:09:53;18.30;68.80
19214;DHT22;9741;51.020;5.304;2023-08-06T10:12:27;18.30;68.80
19214;DHT22;9741;51.020;5.304;2023-08-06T10:15:01;18.20;68.70
19214;DHT22;9741;51.020;5.304;2023-08-06T10:17:33;18.20;68.70
19214;DHT22;9741;51.020;5.304;2023-08-06T10:20:05;18.20;68.70
19214;DHT22;9741;51.020;5.304;2023-08-06T10:23:00;18.20;68.70
19214;DHT22;9741;51.020;5.304;2023-08-06T10:25:39;18.20;68.70
19214;DHT22;9741;51.020;5.304;2023-08-06T10:28:13;18.20;68.70
19214;DHT22;9741;51.020;5.304;2023-08-06T10:30:50;18.20;68.70
19214;DHT22;9741;51.020;5.304;2023-08-06T10:33:22;18.10;68.60
19214;DHT22;9741;51.020;5.304;2023-08-06T10:36:01;18.10;68.60
19214;DHT22;9741;51.020;5.304;2023-08-06T10:38:31;18.00;68.60
19214;DHT22;9741;51.020;5.304;2023-08-06T10:41:02;18.00;68.60
19214;DHT22;9741;51.020;5.304;2023-08-06T10:43:31;18.00;68.70
19214;DHT22;9741;51.020;5.304;2023-08-06T10:46:01;17.90;68.70
19214;DHT22;9741;51.020;5.304;2023-08-06T10:48:34;17.90;68.80
19214;DHT22;9741;51.020;5.304;2023-08-06T10:51:02;17.90;69.30
19214;DHT22;9741;51.020;5.304;2023-08-06T10:53:31;17.90;68.90
19214;DHT22;9741;51.020;5.304;2023-08-06T10:55:59;17.90;68.80
19214;DHT22;9741;51.020;5.304;2023-08-06T10:58:31;17.90;68.80
19214;DHT22;9741;51.020;5.304;2023-08-06T11:01:00;17.90;68.80
19214;DHT22;9741;51.020;5.304;2023-08-06T11:03:30;17.80;68.70
19214;DHT22;9741;51.020;5.304;2023-08-06T11:06:09;17.80;68.80
19214;DHT22;9741;51.020;5.304;2023-08-06T11:08:49;17.80;68.90
19214;DHT22;9741;51.020;5.304;2023-08-06T11:11:19;17.90;69.20
19214;DHT22;9741;51.020;5.304;2023-08-06T11:13:51;17.90;69.20
19214;DHT22;9741;51.020;5.304;2023-08-06T11:16:24;18.00;69.30
19214;DHT22;9741;51.020;5.304;2023-08-06T11:18:56;18.20;69.40
19214;DHT22;9741;51.020;5.304;2023-08-06T11:21:27;18.20;69.20
19214;DHT22;9741;51.020;5.304;2023-08-06T11:24:15;18.30;69.10
19214;DHT22;9741;51.020;5.304;2023-08-06T11:26:51;18.40;69.20
19214;DHT22;9741;51.020;5.304;2023-08-06T11:29:22;18.50;69.20
19214;DHT22;9741;51.020;5.304;2023-08-06T11:32:04;18.60;69.10
19214;DHT22;9741;51.020;5.304;2023-08-06T11:34:38;18.60;68.90
19214;DHT22;9741;51.020;5.304;2023-08-06T11:37:09;18.60;68.80
19214;DHT22;9741;51.020;5.304;2023-08-06T11:39:54;18.60;68.70
19214;DHT22;9741;51.020;5.304;2023-08-06T11:42:31;18.60;68.70
19214;DHT22;9741;51.020;5.304;2023-08-06T11:44:58;18.60;68.70
19214;DHT22;9741;51.020;5.304;2023-08-06T11:47:25;18.80;68.70
19214;DHT22;9741;51.020;5.304;2023-08-06T11:49:53;18.80;68.50
19214;DHT22;9741;51.020;5.304;2023-08-06T11:52:21;18.90;68.40
19214;DHT22;9741;51.020;5.304;2023-08-06T11:55:01;19.00;68.40
19214;DHT22;9741;51.020;5.304;2023-08-06T11:57:34;19.20;68.20
19214;DHT22;9741;51.020;5.304;2023-08-06T12:00:04;19.20;68.00
19214;DHT22;9741;51.020;5.304;2023-08-06T12:02:41;19.30;67.80
19214;DHT22;9741;51.020;5.304;2023-08-06T12:05:14;19.40;67.70
19214;DHT22;9741;51.020;5.304;2023-08-06T12:07:55;19.50;67.60
19214;DHT22;9741;51.020;5.304;2023-08-06T12:10:32;19.50;67.30
19214;DHT22;9741;51.020;5.304;2023-08-06T12:13:03;19.60;67.20
19214;DHT22;9741;51.020;5.304;2023-08-06T12:15:34;19.70;67.00
19214;DHT22;9741;51.020;5.304;2023-08-06T12:18:05;19.70;66.70
19214;DHT22;9741;51.020;5.304;2023-08-06T12:20:35;19.80;66.80
19214;DHT22;9741;51.020;5.304;2023-08-06T12:23:09;19.90;66.70
19214;DHT22;9741;51.020;5.304;2023-08-06T12:25:46;20.00;66.50
19214;DHT22;9741;51.020;5.304;2023-08-06T12:28:19;20.10;66.30
19214;DHT22;9741;51.020;5.304;2023-08-06T12:30:49;20.20;66.10
19214;DHT22;9741;51.020;5.304;2023-08-06T12:33:21;20.20;65.80
19214;DHT22;9741;51.020;5.304;2023-08-06T12:35:54;20.10;65.40
19214;DHT22;9741;51.020;5.304;2023-08-06T12:38:28;19.80;65.20
19214;DHT22;9741;51.020;5.304;2023-08-06T12:41:14;19.70;65.40
19214;DHT22;9741;51.020;5.304;2023-08-06T12:43:45;19.50;65.70
19214;DHT22;9741;51.020;5.304;2023-08-06T12:46:18;19.40;65.90
19214;DHT22;9741;51.020;5.304;2023-08-06T12:48:48;19.40;66.10
19214;DHT22;9741;51.020;5.304;2023-08-06T12:51:26;19.30;66.00
19214;DHT22;9741;51.020;5.304;2023-08-06T12:53:56;19.20;65.90
19214;DHT22;9741;51.020;5.304;2023-08-06T12:56:37;19.00;66.30
19214;DHT22;9741;51.020;5.304;2023-08-06T12:59:09;18.80;65.80
19214;DHT22;9741;51.020;5.304;2023-08-06T13:01:42;18.70;66.00
19214;DHT22;9741;51.020;5.304;2023-08-06T13:04:19;18.50;66.10
19214;DHT22;9741;51.020;5.304;2023-08-06T13:06:50;18.50;66.30
19214;DHT22;9741;51.020;5.304;2023-08-06T13:09:20;18.40;66.40
19214;DHT22;9741;51.020;5.304;2023-08-06T13:12:01;18.40;66.60
19214;DHT22;9741;51.020;5.304;2023-08-06T13:14:36;18.40;66.50
19214;DHT22;9741;51.020;5.304;2023-08-06T13:17:18;18.50;66.60
19214;DHT22;9741;51.020;5.304;2023-08-06T13:20:04;18.40;66.60
19214;DHT22;9741;51.020;5.304;2023-08-06T13:22:48;18.40;66.70
19214;DHT22;9741;51.020;5.304;2023-08-06T13:25:24;18.40;66.60
19214;DHT22;9741;51.020;5.304;2023-08-06T13:28:05;18.40;66.70
19214;DHT22;9741;51.020;5.304;2023-08-06T13:30:36;18.50;66.90
19214;DHT22;9741;51.020;5.304;2023-08-06T13:33:19;18.50;67.00
19214;DHT22;9741;51.020;5.304;2023-08-06T13:35:57;18.70;67.20
19214;DHT22;9741;51.020;5.304;2023-08-06T13:38:27;18.90;67.20
19214;DHT22;9741;51.020;5.304;2023-08-06T13:41:04;19.00;67.00
19214;DHT22;9741;51.020;5.304;2023-08-06T13:43:37;19.10;66.80
19214;DHT22;9741;51.020;5.304;2023-08-06T13:46:08;19.30;66.90
19214;DHT22;9741;51.020;5.304;2023-08-06T13:48:46;19.50;66.80
19214;DHT22;9741;51.020;5.304;2023-08-06T13:51:21;19.70;66.70
19214;DHT22;9741;51.020;5.304;2023-08-06T13:53:53;19.80;66.10
19214;DHT22;9741;51.020;5.304;2023-08-06T13:56:26;19.70;65.60
19214;DHT22;9741;51.020;5.304;2023-08-06T13:58:59;19.60;65.20
19214;DHT22;9741;51.020;5.304;2023-08-06T14:01:42;19.30;64.90
19214;DHT22;9741;51.020;5.304;2023-08-06T14:04:15;19.10;65.10
19214;DHT22;9741;51.020;5.304;2023-08-06T14:06:48;19.00;65.40
19214;DHT22;9741;51.020;5.304;2023-08-06T14:09:18;18.80;65.40
19214;DHT22;9741;51.020;5.304;2023-08-06T14:11:48;18.80;65.60
19214;DHT22;9741;51.020;5.304;2023-08-06T14:14:21;18.60;65.50
19214;DHT22;9741;51.020;5.304;2023-08-06T14:16:54;18.50;65.60
19214;DHT22;9741;51.020;5.304;2023-08-06T14:19:24;18.50;65.70
19214;DHT22;9741;51.020;5.304;2023-08-06T14:22:00;18.50;65.80
19214;DHT22;9741;51.020;5.304;2023-08-06T14:24:28;18.60;66.10
19214;DHT22;9741;51.020;5.304;2023-08-06T14:27:00;18.70;66.10
19214;DHT22;9741;51.020;5.304;2023-08-06T14:29:43;18.80;66.00
19214;DHT22;9741;51.020;5.304;2023-08-06T14:32:11;18.90;66.00
19214;DHT22;9741;51.020;5.304;2023-08-06T14:34:46;18.90;66.00
19214;DHT22;9741;51.020;5.304;2023-08-06T14:37:22;19.00;65.90
19214;DHT22;9741;51.020;5.304;2023-08-06T14:39:52;19.00;65.70
19214;DHT22;9741;51.020;5.304;2023-08-06T14:42:31;19.00;65.60
19214;DHT22;9741;51.020;5.304;2023-08-06T14:45:07;19.00;65.70
19214;DHT22;9741;51.020;5.304;2023-08-06T14:47:39;18.80;65.50
19214;DHT22;9741;51.020;5.304;2023-08-06T14:50:16;18.80;65.60
19214;DHT22;9741;51.020;5.304;2023-08-06T14:52:55;18.80;65.60
19214;DHT22;9741;51.020;5.304;2023-08-06T14:55:27;18.70;65.40
19214;DHT22;9741;51.020;5.304;2023-08-06T14:57:55;18.60;65.40
19214;DHT22;9741;51.020;5.304;2023-08-06T15:00:27;18.50;65.40
19214;DHT22;9741;51.020;5.304;2023-08-06T15:03:02;18.40;65.30
19214;DHT22;9741;51.020;5.304;2023-08-06T15:05:31;18.30;65.30
19214;DHT22;9741;51.020;5.304;2023-08-06T15:08:07;18.20;65.30
19214;DHT22;9741;51.020;5.304;2023-08-06T15:10:52;18.10;65.30
19214;DHT22;9741;51.020;5.304;2023-08-06T15:13:29;17.90;65.30
19214;DHT22;9741;51.020;5.304;2023-08-06T15:16:03;17.70;65.30
19214;DHT22;9741;51.020;5.304;2023-08-06T15:18:42;17.60;65.50
19214;DHT22;9741;51.020;5.304;2023-08-06T15:21:14;17.50;65.80
19214;DHT22;9741;51.020;5.304;2023-08-06T15:23:44;17.40;66.10
19214;DHT22;9741;51.020;5.304;2023-08-06T15:26:20;17.40;66.20
19214;DHT22;9741;51.020;5.304;2023-08-06T15:28:53;17.40;66.40
19214;DHT22;9741;51.020;5.304;2023-08-06T15:31:37;17.50;66.70
19214;DHT22;9741;51.020;5.304;2023-08-06T15:34:07;17.70;66.70
19214;DHT22;9741;51.020;5.304;2023-08-06T15:36:35;17.70;66.40
19214;DHT22;9741;51.020;5.304;2023-08-06T15:39:04;17.70;66.20
19214;DHT22;9741;51.020;5.304;2023-08-06T15:41:34;17.70;66.00
19214;DHT22;9741;51.020;5.304;2023-08-06T15:44:06;17.80;66.10
19214;DHT22;9741;51.020;5.304;2023-08-06T15:46:43;17.90;66.10
19214;DHT22;9741;51.020;5.304;2023-08-06T15:49:13;17.90;65.90
19214;DHT22;9741;51.020;5.304;2023-08-06T15:51:50;18.00;65.90
19214;DHT22;9741;51.020;5.304;2023-08-06T15:54:28;18.00;65.70
19214;DHT22;9741;51.020;5.304;2023-08-06T15:57:03;18.00;65.70
19214;DHT22;9741;51.020;5.304;2023-08-06T15:59:35;17.90;65.60
19214;DHT22;9741;51.020;5.304;2023-08-06T16:02:26;17.90;65.60
19214;DHT22;9741;51.020;5.304;2023-08-06T16:04:59;17.80;65.70
19214;DHT22;9741;51.020;5.304;2023-08-06T16:07:29;17.70;65.70
19214;DHT22;9741;51.020;5.304;2023-08-06T16:10:04;17.60;65.70
19214;DHT22;9741;51.020;5.304;2023-08-06T16:12:37;17.50;65.80
19214;DHT22;9741;51.020;5.304;2023-08-06T16:15:07;17.40;65.90
19214;DHT22;9741;51.020;5.304;2023-08-06T16:17:49;17.40;66.20
19214;DHT22;9741;51.020;5.304;2023-08-06T16:20:26;17.40;66.30
19214;DHT22;9741;51.020;5.304;2023-08-06T16:23:00;17.30;66.30
19214;DHT22;9741;51.020;5.304;2023-08-06T16:25:30;17.30;66.50
19214;DHT22;9741;51.020;5.304;2023-08-06T16:27:58;17.30;66.40
19214;DHT22;9741;51.020;5.304;2023-08-06T16:30:35;17.30;66.50